sensor_id;sensor_type;location;lat;lon;timestamp;temperature;humidity
21592;DHT22;10958;50.892;3.992;2023-02-21T00:00:33;8.90;99.90
21592;DHT22;10958;50.892;3.992;2023-02-21T00:03:17;9.00;99.90
21592;DHT22;10958;50.892;3.992;2023-02-21T00:06:01;9.10;99.90
21592;DHT22;10958;50.892;3.992;2023-02-21T00:08:45;9.30;99.90
21592;DHT22;10958;50.892;3.992;2023-02-21T00:11:29;9.40;99.90
21592;DHT22;10958;50.892;3.992;2023-02-21T00:14:19;9.30;99.90
21592;DHT22;10958;50.892;3.992;2023-02-21T00:17:30;9.20;99.90
21592;DHT22;10958;50.892;3.992;2023-02-21T00:20:14;8.90;99.90
21592;DHT22;10958;50.892;3.992;2023-02-21T00:23:36;8.70;99.90
21592;DHT22;10958;50.892;3.992;2023-02-21T00:26:21;8.70;99.90
21592;DHT22;10958;50.892;3.992;2023-02-21T00:29:06;9.00;99.90
21592;DHT22;10958;50.892;3.992;2023-02-21T00:31:51;9.10;99.90
21592;DHT22;10958;50.892;3.992;2023-02-21T00:34:36;9.00;99.90
21592;DHT22;10958;50.892;3.992;2023-02-21T00:37:22;9.10;99.90
21592;DHT22;10958;50.892;3.992;2023-02-21T00:40:09;9.00;99.90
21592;DHT22;10958;50.892;3.992;2023-02-21T00:42:54;8.90;99.90
21592;DHT22;10958;50.892;3.992;2023-02-21T00:45:38;8.70;99.90
21592;DHT22;10958;50.892;3.992;2023-02-21T00:48:23;8.60;99.90
21592;DHT22;10958;50.892;3.992;2023-02-21T00:51:08;8.80;99.90
21592;DHT22;10958;50.892;3.992;2023-02-21T00:53:55;9.10;99.90
21592;DHT22;10958;50.892;3.992;2023-02-21T00:56:39;9.10;99.90
21592;DHT22;10958;50.892;3.992;2023-02-21T00:59:24;8.90;99.90
21592;DHT22;10958;50.892;3.992;2023-02-21T01:02:08;8.60;99.90
21592;DHT22;10958;50.892;3.992;2023-02-21T01:04:53;8.70;99.90
21592;DHT22;10958;50.892;3.992;2023-02-21T01:07:40;8.80;99.90
21592;DHT22;10958;50.892;3.992;2023-02-21T01:10:25;9.00;99.90
21592;DHT22;10958;50.892;3.992;2023-02-21T01:13:09;9.20;99.90
21592;DHT22;10958;50.892;3.992;2023-02-21T01:15:54;9.30;99.90
21592;DHT22;10958;50.892;3.992;2023-02-21T01:18:41;9.20;99.90
21592;DHT22;10958;50.892;3.992;2023-02-21T01:21:25;9.00;99.90
21592;DHT22;10958;50.892;3.992;2023-02-21T01:24:12;8.50;99.90
21592;DHT22;10958;50.892;3.992;2023-02-21T01:26:57;8.50;99.90
21592;DHT22;10958;50.892;3.992;2023-02-21T01:29:41;8.20;99.90
21592;DHT22;10958;50.892;3.992;2023-02-21T01:32:26;8.20;99.90
21592;DHT22;10958;50.892;3.992;2023-02-21T01:35:10;8.10;99.90
21592;DHT22;10958;50.892;3.992;2023-02-21T01:37:56;8.20;99.90
21592;DHT22;10958;50.892;3.992;2023-02-21T01:40:43;8.20;99.90
21592;DHT22;10958;50.892;3.992;2023-02-21T01:43:31;8.40;99.90
21592;DHT22;10958;50.892;3.992;2023-02-21T01:46:21;8.40;99.90
21592;DHT22;10958;50.892;3.992;2023-02-21T01:49:14;8.70;99.90
21592;DHT22;10958;50.892;3.992;2023-02-21T01:52:00;8.50;99.90
21592;DHT22;10958;50.892;3.992;2023-02-21T01:54:49;8.30;99.90
21592;DHT22;10958;50.892;3.992;2023-02-21T01:57:38;8.40;99.90
21592;DHT22;10958;50.892;3.992;2023-02-21T02:00:25;8.50;99.90
21592;DHT22;10958;50.892;3.992;2023-02-21T02:03:11;8.50;99.90
21592;DHT22;10958;50.892;3.992;2023-02-21T02:06:13;8.70;99.90
21592;DHT22;10958;50.892;3.992;2023-02-21T02:08:57;8.60;99.90
21592;DHT22;10958;50.892;3.992;2023-02-21T02:28:58;9.00;99.90
21592;DHT22;10958;50.892;3.992;2023-02-21T02:37:34;9.30;99.90
21592;DHT22;10958;50.892;3.992;2023-02-21T02:46:22;9.20;99.90
21592;DHT22;10958;50.892;3.992;2023-02-21T02:49:05;9.30;99.90
21592;DHT22;10958;50.892;3.992;2023-02-21T02:51:33;8.90;99.90
21592;DHT22;10958;50.892;3.992;2023-02-21T02:54:00;8.70;99.90
21592;DHT22;10958;50.892;3.992;2023-02-21T02:56:26;8.70;99.90
21592;DHT22;10958;50.892;3.992;2023-02-21T03:07:38;9.00;99.90
21592;DHT22;10958;50.892;3.992;2023-02-21T03:13:12;9.10;99.90
21592;DHT22;10958;50.892;3.992;2023-02-21T03:18:42;9.20;99.90
21592;DHT22;10958;50.892;3.992;2023-02-21T03:21:13;9.00;99.90
21592;DHT22;10958;50.892;3.992;2023-02-21T03:23:42;9.10;99.90
21592;DHT22;10958;50.892;3.992;2023-02-21T03:26:13;9.30;99.90
21592;DHT22;10958;50.892;3.992;2023-02-21T03:28:40;9.50;99.90
21592;DHT22;10958;50.892;3.992;2023-02-21T03:31:09;9.60;99.90
21592;DHT22;10958;50.892;3.992;2023-02-21T03:33:37;9.80;99.90
21592;DHT22;10958;50.892;3.992;2023-02-21T03:36:04;9.60;99.90
21592;DHT22;10958;50.892;3.992;2023-02-21T03:38:33;9.50;99.90
21592;DHT22;10958;50.892;3.992;2023-02-21T03:40:58;9.50;99.90
21592;DHT22;10958;50.892;3.992;2023-02-21T03:43:26;9.50;99.90
21592;DHT22;10958;50.892;3.992;2023-02-21T03:45:52;9.60;99.90
21592;DHT22;10958;50.892;3.992;2023-02-21T03:48:18;9.50;99.90
21592;DHT22;10958;50.892;3.992;2023-02-21T03:50:46;9.10;99.90
21592;DHT22;10958;50.892;3.992;2023-02-21T03:53:12;9.00;99.90
21592;DHT22;10958;50.892;3.992;2023-02-21T03:55:38;8.80;99.90
21592;DHT22;10958;50.892;3.992;2023-02-21T03:58:04;8.60;99.90
21592;DHT22;10958;50.892;3.992;2023-02-21T04:00:30;8.80;99.90
21592;DHT22;10958;50.892;3.992;2023-02-21T04:02:56;8.70;99.90
21592;DHT22;10958;50.892;3.992;2023-02-21T04:05:22;8.80;99.90
21592;DHT22;10958;50.892;3.992;2023-02-21T04:07:47;8.90;99.90
21592;DHT22;10958;50.892;3.992;2023-02-21T04:10:16;8.80;99.90
21592;DHT22;10958;50.892;3.992;2023-02-21T04:12:44;8.90;99.90
21592;DHT22;10958;50.892;3.992;2023-02-21T04:15:10;8.90;99.90
21592;DHT22;10958;50.892;3.992;2023-02-21T04:17:36;8.60;99.90
21592;DHT22;10958;50.892;3.992;2023-02-21T04:20:04;8.50;99.90
21592;DHT22;10958;50.892;3.992;2023-02-21T04:22:30;8.60;99.90
21592;DHT22;10958;50.892;3.992;2023-02-21T04:24:56;8.60;99.90
21592;DHT22;10958;50.892;3.992;2023-02-21T04:27:22;8.80;99.90
21592;DHT22;10958;50.892;3.992;2023-02-21T04:29:48;8.90;99.90
21592;DHT22;10958;50.892;3.992;2023-02-21T04:32:14;8.90;99.90
21592;DHT22;10958;50.892;3.992;2023-02-21T04:34:41;8.80;99.90
21592;DHT22;10958;50.892;3.992;2023-02-21T04:37:08;8.80;99.90
21592;DHT22;10958;50.892;3.992;2023-02-21T04:39:34;9.00;99.90
21592;DHT22;10958;50.892;3.992;2023-02-21T04:42:00;9.20;99.90
21592;DHT22;10958;50.892;3.992;2023-02-21T04:44:25;9.30;99.90
21592;DHT22;10958;50.892;3.992;2023-02-21T04:46:51;9.40;99.90
21592;DHT22;10958;50.892;3.992;2023-02-21T04:49:16;9.30;99.90
21592;DHT22;10958;50.892;3.992;2023-02-21T04:51:43;9.10;99.90
21592;DHT22;10958;50.892;3.992;2023-02-21T04:54:08;9.30;99.90
21592;DHT22;10958;50.892;3.992;2023-02-21T04:56:34;9.30;99.90
21592;DHT22;10958;50.892;3.992;2023-02-21T04:59:01;8.90;99.90
21592;DHT22;10958;50.892;3.992;2023-02-21T05:01:28;8.80;99.90
21592;DHT22;10958;50.892;3.992;2023-02-21T05:03:58;8.80;99.90
21592;DHT22;10958;50.892;3.992;2023-02-21T05:06:25;8.70;99.90
21592;DHT22;10958;50.892;3.992;2023-02-21T05:08:51;8.80;99.90
21592;DHT22;10958;50.892;3.992;2023-02-21T05:11:18;8.90;99.90
21592;DHT22;10958;50.892;3.992;2023-02-21T05:13:44;9.00;99.90
21592;DHT22;10958;50.892;3.992;2023-02-21T05:16:10;9.10;99.90
21592;DHT22;10958;50.892;3.992;2023-02-21T05:19:07;9.20;99.90
21592;DHT22;10958;50.892;3.992;2023-02-21T05:22:18;8.90;99.90
21592;DHT22;10958;50.892;3.992;2023-02-21T05:28:36;8.90;99.90
21592;DHT22;10958;50.892;3.992;2023-02-21T05:31:29;9.00;99.90
21592;DHT22;10958;50.892;3.992;2023-02-21T05:34:13;8.90;99.90
21592;DHT22;10958;50.892;3.992;2023-02-21T05:37:09;8.70;99.90
21592;DHT22;10958;50.892;3.992;2023-02-21T05:39:51;8.70;99.90
21592;DHT22;10958;50.892;3.992;2023-02-21T05:45:01;8.90;99.90
21592;DHT22;10958;50.892;3.992;2023-02-21T05:47:32;8.60;99.90
21592;DHT22;10958;50.892;3.992;2023-02-21T05:53:00;8.70;99.90
21592;DHT22;10958;50.892;3.992;2023-02-21T05:55:53;8.50;99.90
21592;DHT22;10958;50.892;3.992;2023-02-21T05:58:42;8.50;99.90
21592;DHT22;10958;50.892;3.992;2023-02-21T06:01:25;8.40;99.90
21592;DHT22;10958;50.892;3.992;2023-02-21T06:04:01;8.50;99.90
21592;DHT22;10958;50.892;3.992;2023-02-21T06:06:33;8.50;99.90
21592;DHT22;10958;50.892;3.992;2023-02-21T06:09:30;8.60;99.90
21592;DHT22;10958;50.892;3.992;2023-02-21T06:12:15;8.60;99.90
21592;DHT22;10958;50.892;3.992;2023-02-21T06:15:07;8.50;99.90
21592;DHT22;10958;50.892;3.992;2023-02-21T06:17:49;8.30;99.90
21592;DHT22;10958;50.892;3.992;2023-02-21T06:20:25;8.20;99.90
21592;DHT22;10958;50.892;3.992;2023-02-21T06:23:07;8.30;99.90
21592;DHT22;10958;50.892;3.992;2023-02-21T06:29:06;8.50;99.90
21592;DHT22;10958;50.892;3.992;2023-02-21T06:31:35;8.40;99.90
21592;DHT22;10958;50.892;3.992;2023-02-21T06:34:14;8.40;99.90
21592;DHT22;10958;50.892;3.992;2023-02-21T06:39:54;8.70;99.90
21592;DHT22;10958;50.892;3.992;2023-02-21T06:42:20;8.60;99.90
21592;DHT22;10958;50.892;3.992;2023-02-21T06:48:12;8.30;99.90
21592;DHT22;10958;50.892;3.992;2023-02-21T06:50:56;8.10;99.90
21592;DHT22;10958;50.892;3.992;2023-02-21T06:53:21;8.10;99.90
21592;DHT22;10958;50.892;3.992;2023-02-21T06:55:47;8.20;99.90
21592;DHT22;10958;50.892;3.992;2023-02-21T06:58:13;8.20;99.90
21592;DHT22;10958;50.892;3.992;2023-02-21T07:00:39;8.20;99.90
21592;DHT22;10958;50.892;3.992;2023-02-21T07:03:05;8.10;99.90
21592;DHT22;10958;50.892;3.992;2023-02-21T07:05:31;8.20;99.90
21592;DHT22;10958;50.892;3.992;2023-02-21T07:08:05;8.20;99.90
21592;DHT22;10958;50.892;3.992;2023-02-21T07:10:31;8.30;99.90
21592;DHT22;10958;50.892;3.992;2023-02-21T07:13:03;8.50;99.90
21592;DHT22;10958;50.892;3.992;2023-02-21T07:15:29;8.50;99.90
21592;DHT22;10958;50.892;3.992;2023-02-21T07:17:55;8.50;99.90
21592;DHT22;10958;50.892;3.992;2023-02-21T07:20:21;8.50;99.90
21592;DHT22;10958;50.892;3.992;2023-02-21T07:22:47;8.60;99.90
21592;DHT22;10958;50.892;3.992;2023-02-21T07:25:18;8.50;99.90
21592;DHT22;10958;50.892;3.992;2023-02-21T07:27:46;8.70;99.90
21592;DHT22;10958;50.892;3.992;2023-02-21T07:30:13;8.70;99.90
21592;DHT22;10958;50.892;3.992;2023-02-21T07:32:39;8.70;99.90
21592;DHT22;10958;50.892;3.992;2023-02-21T07:35:05;8.80;99.90
21592;DHT22;10958;50.892;3.992;2023-02-21T07:37:31;8.90;99.90
21592;DHT22;10958;50.892;3.992;2023-02-21T07:39:57;9.00;99.90
21592;DHT22;10958;50.892;3.992;2023-02-21T07:42:25;9.00;99.90
21592;DHT22;10958;50.892;3.992;2023-02-21T07:44:55;9.10;99.90
21592;DHT22;10958;50.892;3.992;2023-02-21T07:47:23;9.20;99.90
21592;DHT22;10958;50.892;3.992;2023-02-21T07:49:49;9.10;99.90
21592;DHT22;10958;50.892;3.992;2023-02-21T07:52:18;8.90;99.90
21592;DHT22;10958;50.892;3.992;2023-02-21T07:54:44;8.80;99.90
21592;DHT22;10958;50.892;3.992;2023-02-21T07:57:10;8.80;99.90
21592;DHT22;10958;50.892;3.992;2023-02-21T07:59:37;8.80;99.90
21592;DHT22;10958;50.892;3.992;2023-02-21T08:02:03;8.90;99.90
21592;DHT22;10958;50.892;3.992;2023-02-21T08:04:30;9.00;99.90
21592;DHT22;10958;50.892;3.992;2023-02-21T08:07:08;9.00;99.90
21592;DHT22;10958;50.892;3.992;2023-02-21T08:10:22;9.00;99.90
21592;DHT22;10958;50.892;3.992;2023-02-21T08:12:51;9.20;99.90
21592;DHT22;10958;50.892;3.992;2023-02-21T08:15:26;9.10;99.90
21592;DHT22;10958;50.892;3.992;2023-02-21T08:17:59;9.00;99.90
21592;DHT22;10958;50.892;3.992;2023-02-21T08:20:35;8.90;99.90
21592;DHT22;10958;50.892;3.992;2023-02-21T08:23:21;8.80;99.90
21592;DHT22;10958;50.892;3.992;2023-02-21T08:26:07;8.80;99.90
21592;DHT22;10958;50.892;3.992;2023-02-21T08:31:07;8.70;99.90
21592;DHT22;10958;50.892;3.992;2023-02-21T08:33:33;8.60;99.90
21592;DHT22;10958;50.892;3.992;2023-02-21T08:35:59;8.50;99.90
21592;DHT22;10958;50.892;3.992;2023-02-21T08:38:24;8.50;99.90
21592;DHT22;10958;50.892;3.992;2023-02-21T08:40:51;8.60;99.90
21592;DHT22;10958;50.892;3.992;2023-02-21T08:43:17;8.80;99.90
21592;DHT22;10958;50.892;3.992;2023-02-21T08:45:43;8.80;99.90
21592;DHT22;10958;50.892;3.992;2023-02-21T08:48:09;8.90;99.90
21592;DHT22;10958;50.892;3.992;2023-02-21T08:50:37;9.00;99.90
21592;DHT22;10958;50.892;3.992;2023-02-21T08:53:03;8.80;99.90
21592;DHT22;10958;50.892;3.992;2023-02-21T08:55:29;8.70;99.90
21592;DHT22;10958;50.892;3.992;2023-02-21T08:57:55;8.70;99.90
21592;DHT22;10958;50.892;3.992;2023-02-21T09:00:23;8.80;99.90
21592;DHT22;10958;50.892;3.992;2023-02-21T09:02:50;8.90;99.90
21592;DHT22;10958;50.892;3.992;2023-02-21T09:05:19;9.10;99.90
21592;DHT22;10958;50.892;3.992;2023-02-21T09:07:50;9.30;99.90
21592;DHT22;10958;50.892;3.992;2023-02-21T09:10:17;9.10;99.90
21592;DHT22;10958;50.892;3.992;2023-02-21T09:12:43;9.10;99.90
21592;DHT22;10958;50.892;3.992;2023-02-21T09:15:09;9.10;99.90
21592;DHT22;10958;50.892;3.992;2023-02-21T09:17:35;9.20;99.90
21592;DHT22;10958;50.892;3.992;2023-02-21T09:20:06;9.30;99.90
21592;DHT22;10958;50.892;3.992;2023-02-21T09:22:32;9.00;99.90
21592;DHT22;10958;50.892;3.992;2023-02-21T09:24:59;9.10;99.90
21592;DHT22;10958;50.892;3.992;2023-02-21T09:27:27;9.20;99.90
21592;DHT22;10958;50.892;3.992;2023-02-21T09:30:14;9.30;99.90
21592;DHT22;10958;50.892;3.992;2023-02-21T09:32:41;9.40;99.90
21592;DHT22;10958;50.892;3.992;2023-02-21T09:35:11;9.30;99.90
21592;DHT22;10958;50.892;3.992;2023-02-21T09:37:39;9.40;99.90
21592;DHT22;10958;50.892;3.992;2023-02-21T09:40:20;9.40;99.90
21592;DHT22;10958;50.892;3.992;2023-02-21T09:42:55;9.30;99.90
21592;DHT22;10958;50.892;3.992;2023-02-21T09:45:25;9.20;99.90
21592;DHT22;10958;50.892;3.992;2023-02-21T09:47:54;9.30;99.90
21592;DHT22;10958;50.892;3.992;2023-02-21T09:50:28;8.90;99.90
21592;DHT22;10958;50.892;3.992;2023-02-21T09:52:56;8.80;99.90
21592;DHT22;10958;50.892;3.992;2023-02-21T09:57:52;8.50;99.90
21592;DHT22;10958;50.892;3.992;2023-02-21T10:00:21;8.60;99.90
21592;DHT22;10958;50.892;3.992;2023-02-21T10:08:18;9.30;99.90
21592;DHT22;10958;50.892;3.992;2023-02-21T10:10:57;9.50;99.90
21592;DHT22;10958;50.892;3.992;2023-02-21T10:13:28;9.60;99.90
21592;DHT22;10958;50.892;3.992;2023-02-21T10:15:58;9.50;99.90
21592;DHT22;10958;50.892;3.992;2023-02-21T10:21:24;9.10;99.90
21592;DHT22;10958;50.892;3.992;2023-02-21T10:23:54;9.00;99.90
21592;DHT22;10958;50.892;3.992;2023-02-21T10:26:30;9.30;99.90
21592;DHT22;10958;50.892;3.992;2023-02-21T10:29:00;9.30;99.90
21592;DHT22;10958;50.892;3.992;2023-02-21T10:31:35;9.30;99.90
21592;DHT22;10958;50.892;3.992;2023-02-21T10:34:08;9.40;99.90
21592;DHT22;10958;50.892;3.992;2023-02-21T10:36:40;9.50;99.90
21592;DHT22;10958;50.892;3.992;2023-02-21T10:39:14;9.40;99.90
21592;DHT22;10958;50.892;3.992;2023-02-21T10:41:48;9.40;99.90
21592;DHT22;10958;50.892;3.992;2023-02-21T10:44:28;9.40;99.90
21592;DHT22;10958;50.892;3.992;2023-02-21T10:47:18;9.30;99.90
21592;DHT22;10958;50.892;3.992;2023-02-21T10:50:06;9.40;99.90
21592;DHT22;10958;50.892;3.992;2023-02-21T10:52:37;9.40;99.90
21592;DHT22;10958;50.892;3.992;2023-02-21T10:55:16;9.40;99.90
21592;DHT22;10958;50.892;3.992;2023-02-21T10:57:43;9.50;99.90
21592;DHT22;10958;50.892;3.992;2023-02-21T11:04:31;9.80;99.90
21592;DHT22;10958;50.892;3.992;2023-02-21T11:07:06;9.90;99.90
21592;DHT22;10958;50.892;3.992;2023-02-21T11:15:24;9.60;99.90
21592;DHT22;10958;50.892;3.992;2023-02-21T11:18:27;9.60;99.90
21592;DHT22;10958;50.892;3.992;2023-02-21T11:21:21;9.80;99.90
21592;DHT22;10958;50.892;3.992;2023-02-21T11:24:06;9.90;99.90
21592;DHT22;10958;50.892;3.992;2023-02-21T11:26:59;9.80;99.90
21592;DHT22;10958;50.892;3.992;2023-02-21T11:29:25;9.70;99.90
21592;DHT22;10958;50.892;3.992;2023-02-21T11:31:54;9.80;99.90
21592;DHT22;10958;50.892;3.992;2023-02-21T11:34:20;10.00;99.90
21592;DHT22;10958;50.892;3.992;2023-02-21T11:36:52;10.00;99.90
21592;DHT22;10958;50.892;3.992;2023-02-21T11:39:31;10.10;99.90
21592;DHT22;10958;50.892;3.992;2023-02-21T11:41:59;10.20;99.90
21592;DHT22;10958;50.892;3.992;2023-02-21T11:44:33;10.10;99.90
21592;DHT22;10958;50.892;3.992;2023-02-21T11:47:15;10.10;99.90
21592;DHT22;10958;50.892;3.992;2023-02-21T11:52:32;9.80;99.90
21592;DHT22;10958;50.892;3.992;2023-02-21T11:55:00;9.60;99.90
21592;DHT22;10958;50.892;3.992;2023-02-21T11:57:44;9.50;99.90
21592;DHT22;10958;50.892;3.992;2023-02-21T12:08:18;9.30;99.90
21592;DHT22;10958;50.892;3.992;2023-02-21T12:19:27;9.50;99.90
21592;DHT22;10958;50.892;3.992;2023-02-21T12:27:47;9.80;99.90
21592;DHT22;10958;50.892;3.992;2023-02-21T12:38:15;10.00;99.90
21592;DHT22;10958;50.892;3.992;2023-02-21T12:43:49;10.30;99.90
21592;DHT22;10958;50.892;3.992;2023-02-21T12:46:24;10.20;99.90
21592;DHT22;10958;50.892;3.992;2023-02-21T12:49:02;10.20;99.90
21592;DHT22;10958;50.892;3.992;2023-02-21T12:51:41;10.30;99.90
21592;DHT22;10958;50.892;3.992;2023-02-21T12:54:19;10.50;99.90
21592;DHT22;10958;50.892;3.992;2023-02-21T12:57:13;10.50;99.90
21592;DHT22;10958;50.892;3.992;2023-02-21T13:00:15;10.50;99.90
21592;DHT22;10958;50.892;3.992;2023-02-21T13:03:04;10.50;99.90
21592;DHT22;10958;50.892;3.992;2023-02-21T13:05:41;10.30;99.90
21592;DHT22;10958;50.892;3.992;2023-02-21T13:08:27;10.20;99.90
21592;DHT22;10958;50.892;3.992;2023-02-21T13:13:34;10.20;99.90
21592;DHT22;10958;50.892;3.992;2023-02-21T13:16:03;10.30;99.90
21592;DHT22;10958;50.892;3.992;2023-02-21T13:18:31;10.50;99.90
21592;DHT22;10958;50.892;3.992;2023-02-21T13:21:01;10.50;99.90
21592;DHT22;10958;50.892;3.992;2023-02-21T13:29:28;10.40;99.90
21592;DHT22;10958;50.892;3.992;2023-02-21T13:34:44;10.30;99.90
21592;DHT22;10958;50.892;3.992;2023-02-21T13:37:23;10.30;99.90
21592;DHT22;10958;50.892;3.992;2023-02-21T13:39:56;10.40;99.90
21592;DHT22;10958;50.892;3.992;2023-02-21T13:42:35;10.30;99.90
21592;DHT22;10958;50.892;3.992;2023-02-21T13:55:38;9.50;99.90
21592;DHT22;10958;50.892;3.992;2023-02-21T14:08:42;10.20;99.90
21592;DHT22;10958;50.892;3.992;2023-02-21T14:11:12;10.30;99.90
21592;DHT22;10958;50.892;3.992;2023-02-21T14:13:49;10.30;99.90
21592;DHT22;10958;50.892;3.992;2023-02-21T14:16:21;10.30;99.90
21592;DHT22;10958;50.892;3.992;2023-02-21T14:21:31;10.40;99.90
21592;DHT22;10958;50.892;3.992;2023-02-21T14:29:34;10.50;99.90
21592;DHT22;10958;50.892;3.992;2023-02-21T14:34:50;10.40;99.90
21592;DHT22;10958;50.892;3.992;2023-02-21T14:42:53;9.80;99.90
21592;DHT22;10958;50.892;3.992;2023-02-21T14:59:41;10.50;99.90
21592;DHT22;10958;50.892;3.992;2023-02-21T15:02:37;10.60;99.90
21592;DHT22;10958;50.892;3.992;2023-02-21T15:08:18;10.70;99.90
21592;DHT22;10958;50.892;3.992;2023-02-21T15:10:47;10.60;99.90
21592;DHT22;10958;50.892;3.992;2023-02-21T15:19:01;10.80;99.90
21592;DHT22;10958;50.892;3.992;2023-02-21T15:21:30;10.80;99.90
21592;DHT22;10958;50.892;3.992;2023-02-21T15:24:10;10.80;99.90
21592;DHT22;10958;50.892;3.992;2023-02-21T15:26:37;10.50;99.90
21592;DHT22;10958;50.892;3.992;2023-02-21T15:29:11;10.50;99.90
21592;DHT22;10958;50.892;3.992;2023-02-21T15:31:50;10.50;99.90
21592;DHT22;10958;50.892;3.992;2023-02-21T15:34:22;10.50;99.90
21592;DHT22;10958;50.892;3.992;2023-02-21T15:37:15;10.30;99.90
21592;DHT22;10958;50.892;3.992;2023-02-21T15:39:48;10.20;99.90
21592;DHT22;10958;50.892;3.992;2023-02-21T15:42:16;10.30;99.90
21592;DHT22;10958;50.892;3.992;2023-02-21T15:47:17;10.30;99.90
21592;DHT22;10958;50.892;3.992;2023-02-21T15:52:46;10.20;99.90
21592;DHT22;10958;50.892;3.992;2023-02-21T16:06:12;8.80;99.90
21592;DHT22;10958;50.892;3.992;2023-02-21T16:08:50;9.00;99.90
21592;DHT22;10958;50.892;3.992;2023-02-21T16:11:17;9.40;99.90
21592;DHT22;10958;50.892;3.992;2023-02-21T16:13:45;9.60;99.90
21592;DHT22;10958;50.892;3.992;2023-02-21T16:16:14;9.80;99.90
21592;DHT22;10958;50.892;3.992;2023-02-21T16:18:40;10.00;99.90
21592;DHT22;10958;50.892;3.992;2023-02-21T16:21:27;10.00;99.90
21592;DHT22;10958;50.892;3.992;2023-02-21T16:23:55;10.20;99.90
21592;DHT22;10958;50.892;3.992;2023-02-21T16:26:24;10.20;99.90
21592;DHT22;10958;50.892;3.992;2023-02-21T16:28:55;9.90;99.90
21592;DHT22;10958;50.892;3.992;2023-02-21T16:31:29;9.50;99.90
21592;DHT22;10958;50.892;3.992;2023-02-21T16:34:15;9.60;99.90
21592;DHT22;10958;50.892;3.992;2023-02-21T16:36:49;9.90;99.90
21592;DHT22;10958;50.892;3.992;2023-02-21T16:39:43;10.00;99.90
21592;DHT22;10958;50.892;3.992;2023-02-21T16:42:15;10.00;99.90
21592;DHT22;10958;50.892;3.992;2023-02-21T16:48:05;10.20;99.90
21592;DHT22;10958;50.892;3.992;2023-02-21T16:50:33;9.70;99.90
21592;DHT22;10958;50.892;3.992;2023-02-21T16:56:30;9.30;99.90
21592;DHT22;10958;50.892;3.992;2023-02-21T16:59:23;9.50;99.90
21592;DHT22;10958;50.892;3.992;2023-02-21T17:01:51;9.70;99.90
21592;DHT22;10958;50.892;3.992;2023-02-21T17:04:23;9.60;99.90
21592;DHT22;10958;50.892;3.992;2023-02-21T17:06:55;9.90;99.90
21592;DHT22;10958;50.892;3.992;2023-02-21T17:09:23;9.90;99.90
21592;DHT22;10958;50.892;3.992;2023-02-21T17:11:49;10.20;99.90
21592;DHT22;10958;50.892;3.992;2023-02-21T17:14:16;10.30;99.90
21592;DHT22;10958;50.892;3.992;2023-02-21T17:16:42;10.40;99.90
21592;DHT22;10958;50.892;3.992;2023-02-21T17:19:10;10.30;99.90
21592;DHT22;10958;50.892;3.992;2023-02-21T17:21:37;10.40;99.90
21592;DHT22;10958;50.892;3.992;2023-02-21T17:24:03;9.90;99.90
21592;DHT22;10958;50.892;3.992;2023-02-21T17:26:29;9.80;99.90
21592;DHT22;10958;50.892;3.992;2023-02-21T17:28:55;9.60;99.90
21592;DHT22;10958;50.892;3.992;2023-02-21T17:31:20;9.70;99.90
21592;DHT22;10958;50.892;3.992;2023-02-21T17:33:46;9.50;99.90
21592;DHT22;10958;50.892;3.992;2023-02-21T17:36:20;9.20;99.90
21592;DHT22;10958;50.892;3.992;2023-02-21T17:38:49;9.20;99.90
21592;DHT22;10958;50.892;3.992;2023-02-21T17:41:15;9.10;99.90
21592;DHT22;10958;50.892;3.992;2023-02-21T17:43:41;9.00;99.90
21592;DHT22;10958;50.892;3.992;2023-02-21T17:46:15;9.00;99.90
21592;DHT22;10958;50.892;3.992;2023-02-21T17:48:42;9.20;99.90
21592;DHT22;10958;50.892;3.992;2023-02-21T17:51:13;9.10;99.90
21592;DHT22;10958;50.892;3.992;2023-02-21T17:53:40;9.00;99.90
21592;DHT22;10958;50.892;3.992;2023-02-21T17:56:06;8.80;99.90
21592;DHT22;10958;50.892;3.992;2023-02-21T17:58:32;8.70;99.90
21592;DHT22;10958;50.892;3.992;2023-02-21T18:00:58;8.70;99.90
21592;DHT22;10958;50.892;3.992;2023-02-21T18:03:24;8.80;99.90
21592;DHT22;10958;50.892;3.992;2023-02-21T18:05:51;8.90;99.90
21592;DHT22;10958;50.892;3.992;2023-02-21T18:08:18;9.00;99.90
21592;DHT22;10958;50.892;3.992;2023-02-21T18:10:44;9.00;99.90
21592;DHT22;10958;50.892;3.992;2023-02-21T18:13:22;9.00;99.90
21592;DHT22;10958;50.892;3.992;2023-02-21T18:16:06;9.00;99.90
21592;DHT22;10958;50.892;3.992;2023-02-21T18:19:13;8.80;99.90
21592;DHT22;10958;50.892;3.992;2023-02-21T18:36:56;8.50;99.90
21592;DHT22;10958;50.892;3.992;2023-02-21T18:39:43;8.30;99.90
21592;DHT22;10958;50.892;3.992;2023-02-21T18:49:28;8.30;99.90
21592;DHT22;10958;50.892;3.992;2023-02-21T18:52:35;8.20;99.90
21592;DHT22;10958;50.892;3.992;2023-02-21T18:57:53;8.30;99.90
21592;DHT22;10958;50.892;3.992;2023-02-21T19:00:19;8.40;99.90
21592;DHT22;10958;50.892;3.992;2023-02-21T19:02:45;8.10;99.90
21592;DHT22;10958;50.892;3.992;2023-02-21T19:05:16;7.90;99.90
21592;DHT22;10958;50.892;3.992;2023-02-21T19:07:42;7.90;99.90
21592;DHT22;10958;50.892;3.992;2023-02-21T19:10:10;8.00;99.90
21592;DHT22;10958;50.892;3.992;2023-02-21T19:12:36;8.10;99.90
21592;DHT22;10958;50.892;3.992;2023-02-21T19:15:02;8.00;99.90
21592;DHT22;10958;50.892;3.992;2023-02-21T19:17:30;7.90;99.90
21592;DHT22;10958;50.892;3.992;2023-02-21T19:19:56;7.80;99.90
21592;DHT22;10958;50.892;3.992;2023-02-21T19:22:21;7.60;99.90
21592;DHT22;10958;50.892;3.992;2023-02-21T19:24:48;7.40;99.90
21592;DHT22;10958;50.892;3.992;2023-02-21T19:27:13;7.20;99.90
21592;DHT22;10958;50.892;3.992;2023-02-21T19:29:40;7.20;99.90
21592;DHT22;10958;50.892;3.992;2023-02-21T19:32:07;7.30;99.90
21592;DHT22;10958;50.892;3.992;2023-02-21T19:34:33;7.60;99.90
21592;DHT22;10958;50.892;3.992;2023-02-21T19:36:59;7.50;99.90
21592;DHT22;10958;50.892;3.992;2023-02-21T19:39:25;7.70;99.90
21592;DHT22;10958;50.892;3.992;2023-02-21T19:41:53;7.70;99.90
21592;DHT22;10958;50.892;3.992;2023-02-21T19:44:19;7.80;99.90
21592;DHT22;10958;50.892;3.992;2023-02-21T19:46:45;7.90;99.90
21592;DHT22;10958;50.892;3.992;2023-02-21T19:49:11;8.00;99.90
21592;DHT22;10958;50.892;3.992;2023-02-21T19:51:43;7.90;99.90
21592;DHT22;10958;50.892;3.992;2023-02-21T19:54:11;7.90;99.90
21592;DHT22;10958;50.892;3.992;2023-02-21T19:56:37;7.50;99.90
21592;DHT22;10958;50.892;3.992;2023-02-21T19:59:03;7.30;99.90
21592;DHT22;10958;50.892;3.992;2023-02-21T20:01:29;7.40;99.90
21592;DHT22;10958;50.892;3.992;2023-02-21T20:03:57;7.60;99.90
21592;DHT22;10958;50.892;3.992;2023-02-21T20:06:24;7.70;99.90
21592;DHT22;10958;50.892;3.992;2023-02-21T20:08:55;7.80;99.90
21592;DHT22;10958;50.892;3.992;2023-02-21T20:11:23;7.80;99.90
21592;DHT22;10958;50.892;3.992;2023-02-21T20:13:49;7.70;99.90
21592;DHT22;10958;50.892;3.992;2023-02-21T20:16:16;7.70;99.90
21592;DHT22;10958;50.892;3.992;2023-02-21T20:18:45;7.70;99.90
21592;DHT22;10958;50.892;3.992;2023-02-21T20:21:26;7.50;99.90
21592;DHT22;10958;50.892;3.992;2023-02-21T20:23:53;7.20;99.90
21592;DHT22;10958;50.892;3.992;2023-02-21T20:26:22;7.20;99.90